createdAt,value
2022-12-29T00:00:17.678Z,0.75
2022-12-29T00:03:19.456Z,0.79
2022-12-29T00:06:21.410Z,0.87
2022-12-29T00:09:23.238Z,0.85
2022-12-29T00:12:24.882Z,0.88
2022-12-29T00:15:39.961Z,0.77
2022-12-29T00:18:41.693Z,0.78
2022-12-29T00:22:02.185Z,0.71
2022-12-29T00:25:10.180Z,0.78
2022-12-29T00:28:30.653Z,0.79
2022-12-29T00:31:50.865Z,0.73
2022-12-29T00:35:10.674Z,0.67
2022-12-29T00:38:32.603Z,0.67
2022-12-29T00:41:52.990Z,0.73
2022-12-29T00:44:54.797Z,0.74
2022-12-29T00:47:56.416Z,0.73
2022-12-29T00:50:58.085Z,0.60
2022-12-29T00:53:59.796Z,0.70
2022-12-29T00:57:02.329Z,0.66
2022-12-29T01:00:04.473Z,0.62
2022-12-29T01:03:06.338Z,0.68
2022-12-29T01:06:10.532Z,0.56
2022-12-29T01:09:31.829Z,0.54
2022-12-29T01:12:46.081Z,0.61
2022-12-29T01:15:52.132Z,0.56
2022-12-29T01:18:53.896Z,0.48
2022-12-29T01:21:55.613Z,0.44
2022-12-29T01:24:57.444Z,0.52
2022-12-29T01:27:59.157Z,0.59
2022-12-29T01:31:01.859Z,0.52
2022-12-29T01:34:04.251Z,0.55
2022-12-29T01:37:05.944Z,0.63
2022-12-29T01:40:08.547Z,0.60
2022-12-29T01:43:14.039Z,0.55
2022-12-29T01:46:27.506Z,0.58
2022-12-29T01:49:30.291Z,0.37
2022-12-29T01:52:35.038Z,0.17
2022-12-29T01:55:51.099Z,0.04
2022-12-29T01:59:00.839Z,0.09
2022-12-29T02:02:02.788Z,0.15
2022-12-29T02:05:11.472Z,0.23
2022-12-29T02:08:14.380Z,0.17
2022-12-29T02:11:18.072Z,0.20
2022-12-29T02:14:20.055Z,0.27
2022-12-29T02:17:42.891Z,0.28
2022-12-29T02:20:44.522Z,0.34
2022-12-29T02:24:05.953Z,0.39
2022-12-29T02:27:19.533Z,0.36
2022-12-29T02:30:45.951Z,0.32
2022-12-29T02:34:22.668Z,0.31
2022-12-29T02:37:50.374Z,0.33
2022-12-29T02:41:09.700Z,0.31
2022-12-29T02:44:14.491Z,0.38
2022-12-29T02:47:49.533Z,0.38
2022-12-29T02:51:19.397Z,0.35
2022-12-29T02:54:40.280Z,0.34
2022-12-29T02:57:42.180Z,0.39
2022-12-29T03:01:15.268Z,0.36
2022-12-29T03:04:35.400Z,0.42
2022-12-29T03:08:00.214Z,0.36
2022-12-29T03:11:27.894Z,0.39
2022-12-29T03:15:05.594Z,0.38
2022-12-29T03:18:16.488Z,0.31
2022-12-29T03:21:49.109Z,0.36
2022-12-29T03:24:58.855Z,0.24
2022-12-29T03:28:08.723Z,0.34
2022-12-29T03:31:11.813Z,0.32
2022-12-29T03:34:15.665Z,0.28
2022-12-29T03:37:25.276Z,0.24
2022-12-29T03:40:29.855Z,0.24
2022-12-29T03:43:32.914Z,0.27
2022-12-29T03:46:34.965Z,0.20
2022-12-29T03:49:36.799Z,0.07
2022-12-29T03:52:38.434Z,0.22
2022-12-29T03:55:40.169Z,0.21
2022-12-29T03:58:41.946Z,0.23
2022-12-29T04:01:43.909Z,0.24
2022-12-29T04:04:45.657Z,0.34
2022-12-29T04:07:47.495Z,0.34
2022-12-29T04:10:50.699Z,0.26
2022-12-29T04:13:52.350Z,0.33
2022-12-29T04:16:54.089Z,0.21
2022-12-29T04:20:15.812Z,0.21
2022-12-29T04:23:18.595Z,0.18
2022-12-29T04:26:20.240Z,0.20
2022-12-29T04:29:22.099Z,0.20
2022-12-29T04:32:23.765Z,0.23
2022-12-29T04:35:25.480Z,0.19
2022-12-29T04:38:27.242Z,0.33
2022-12-29T04:41:28.905Z,0.26
2022-12-29T04:44:30.594Z,0.30
2022-12-29T04:47:32.268Z,0.40
2022-12-29T04:50:34.042Z,0.48
2022-12-29T04:53:36.312Z,0.50
2022-12-29T04:56:37.974Z,0.39
2022-12-29T04:59:39.660Z,0.36
2022-12-29T05:02:41.460Z,0.39
2022-12-29T05:05:43.293Z,0.36
2022-12-29T05:08:45.053Z,0.24
2022-12-29T05:11:46.817Z,0.18
2022-12-29T05:14:48.657Z,0.28
2022-12-29T05:17:50.354Z,0.21
2022-12-29T05:20:52.109Z,0.17
2022-12-29T05:23:53.792Z,0.20
2022-12-29T05:26:55.509Z,0.15
2022-12-29T05:29:57.318Z,0.22
2022-12-29T05:32:59.109Z,0.19
2022-12-29T05:36:08.988Z,0.13
2022-12-29T05:39:10.731Z,0.17
2022-12-29T05:42:12.430Z,0.11
2022-12-29T05:45:14.184Z,0.08
2022-12-29T05:48:16.427Z,0.04
2022-12-29T05:51:18.095Z,0.02
2022-12-29T05:54:20.184Z,0.00
2022-12-29T05:57:21.843Z,0.03
2022-12-29T06:00:23.538Z,0.06
2022-12-29T06:03:25.380Z,-0.03
2022-12-29T06:06:27.303Z,0.08
2022-12-29T06:09:29.125Z,0.03
2022-12-29T06:12:30.782Z,0.02
2022-12-29T06:15:35.699Z,0.14
2022-12-29T06:18:37.615Z,0.18
2022-12-29T06:21:39.379Z,0.17
2022-12-29T06:24:41.107Z,0.19
2022-12-29T06:27:43.372Z,0.13
2022-12-29T06:30:46.346Z,0.02
2022-12-29T06:33:49.986Z,-0.13
2022-12-29T06:36:52.194Z,-0.10
2022-12-29T06:39:53.924Z,-0.11
2022-12-29T06:42:55.642Z,-0.05
2022-12-29T06:45:57.395Z,0.02
2022-12-29T06:48:59.148Z,0.06
2022-12-29T06:52:01.642Z,-0.06
2022-12-29T06:55:03.563Z,0.08
2022-12-29T06:58:05.322Z,0.25
2022-12-29T07:01:07.150Z,0.38
2022-12-29T07:04:09.340Z,0.39
2022-12-29T07:07:11.029Z,0.51
2022-12-29T07:10:12.781Z,0.52
2022-12-29T07:13:14.764Z,0.52
2022-12-29T07:16:16.734Z,0.30
2022-12-29T07:19:19.550Z,0.44
2022-12-29T07:22:21.300Z,0.58
2022-12-29T07:25:23.358Z,0.54
2022-12-29T07:28:25.013Z,0.64
2022-12-29T07:31:26.706Z,0.84
2022-12-29T07:34:28.419Z,0.90
2022-12-29T07:37:30.149Z,1.16
2022-12-29T07:40:31.789Z,1.47
2022-12-29T07:43:33.518Z,1.76
2022-12-29T07:46:55.623Z,1.98
2022-12-29T07:49:57.419Z,2.19
2022-12-29T07:52:59.142Z,2.44
2022-12-29T07:56:00.885Z,2.42
2022-12-29T07:59:02.679Z,2.75
2022-12-29T08:02:04.522Z,2.96
2022-12-29T08:05:06.980Z,3.38
2022-12-29T08:08:08.643Z,3.68
2022-12-29T08:11:10.287Z,3.70
2022-12-29T08:14:12.199Z,3.89
2022-12-29T08:17:13.903Z,4.66
2022-12-29T08:20:15.737Z,4.80
2022-12-29T08:23:17.503Z,5.08
2022-12-29T08:26:19.219Z,5.49
2022-12-29T08:29:22.385Z,5.30
2022-12-29T08:32:24.171Z,5.52
2022-12-29T08:35:25.850Z,5.12
2022-12-29T08:38:29.425Z,5.13
2022-12-29T08:41:31.161Z,5.23
2022-12-29T08:44:32.889Z,5.80
2022-12-29T08:47:34.584Z,6.10
2022-12-29T08:50:36.359Z,5.75
2022-12-29T08:53:38.049Z,5.74
2022-12-29T08:56:39.758Z,5.93
2022-12-29T08:59:41.386Z,5.86
2022-12-29T09:02:43.454Z,5.96
2022-12-29T09:05:51.608Z,6.05
2022-12-29T09:08:55.200Z,5.73
2022-12-29T09:11:57.069Z,5.85
2022-12-29T09:14:58.800Z,5.60
2022-12-29T09:18:00.479Z,5.56
2022-12-29T09:21:04.106Z,5.39
2022-12-29T09:24:06.119Z,5.20
2022-12-29T09:27:07.836Z,5.44
2022-12-29T09:30:12.008Z,5.59
2022-12-29T09:33:14.392Z,5.63
2022-12-29T09:36:16.019Z,5.59
2022-12-29T09:39:17.790Z,6.60
2022-12-29T09:42:23.289Z,7.82
2022-12-29T09:45:41.542Z,9.14
2022-12-29T09:48:52.603Z,8.73
2022-12-29T09:52:00.394Z,9.47
2022-12-29T09:55:13.893Z,10.72
2022-12-29T09:58:37.039Z,9.83
2022-12-29T10:01:57.684Z,9.07
2022-12-29T10:04:59.721Z,9.67
2022-12-29T10:08:09.286Z,10.79
2022-12-29T10:11:17.094Z,11.08
2022-12-29T10:14:33.612Z,11.28
2022-12-29T10:17:41.622Z,12.05
2022-12-29T10:20:58.381Z,11.42
2022-12-29T10:24:02.963Z,12.13
2022-12-29T10:27:06.556Z,11.34
2022-12-29T10:30:13.749Z,11.97
2022-12-29T10:33:26.404Z,12.88
2022-12-29T10:36:44.346Z,13.57
2022-12-29T10:39:56.229Z,11.91
2022-12-29T10:42:59.109Z,12.55
2022-12-29T10:46:07.036Z,12.12
2022-12-29T10:49:21.598Z,10.27
2022-12-29T10:52:27.755Z,9.22
2022-12-29T10:55:37.746Z,8.80
2022-12-29T10:58:45.621Z,8.18
2022-12-29T11:02:11.329Z,8.06
2022-12-29T11:05:29.543Z,8.24
2022-12-29T11:08:36.334Z,8.08
2022-12-29T11:11:38.457Z,7.96
2022-12-29T11:14:41.706Z,7.84
2022-12-29T11:17:52.059Z,7.70
2022-12-29T11:20:56.995Z,7.69
2022-12-29T11:24:04.748Z,7.53
2022-12-29T11:27:16.508Z,7.50
2022-12-29T11:30:27.523Z,7.46
2022-12-29T11:33:30.478Z,7.38
2022-12-29T11:36:34.371Z,7.38
2022-12-29T11:40:13.448Z,7.42
2022-12-29T11:43:35.519Z,7.55
2022-12-29T11:46:39.419Z,7.61
2022-12-29T11:49:50.954Z,7.64
2022-12-29T11:52:59.992Z,7.53
2022-12-29T11:56:05.859Z,7.47
2022-12-29T11:59:32.714Z,7.40
2022-12-29T12:02:43.163Z,7.35
2022-12-29T12:05:58.798Z,7.32
2022-12-29T12:09:15.506Z,7.28
2022-12-29T12:12:35.628Z,7.23
2022-12-29T12:15:50.159Z,7.16
2022-12-29T12:19:02.091Z,7.14
2022-12-29T12:22:18.600Z,7.11
2022-12-29T12:25:44.114Z,7.24
2022-12-29T12:29:09.395Z,7.21
2022-12-29T12:32:38.951Z,7.15
2022-12-29T12:35:48.486Z,7.17
2022-12-29T12:39:06.388Z,7.13
2022-12-29T12:42:29.419Z,7.11
2022-12-29T12:45:56.296Z,7.07
2022-12-29T12:49:10.175Z,7.08
2022-12-29T12:52:24.754Z,7.12
2022-12-29T12:55:35.581Z,7.13
2022-12-29T12:59:10.276Z,7.20
2022-12-29T13:02:49.767Z,7.09
2022-12-29T13:06:17.600Z,7.14
2022-12-29T13:09:29.601Z,7.20
2022-12-29T13:12:58.123Z,7.25
2022-12-29T13:16:20.102Z,7.18
2022-12-29T13:19:44.854Z,7.24
2022-12-29T13:23:01.567Z,7.32
2022-12-29T13:26:29.123Z,7.35
2022-12-29T13:29:54.160Z,7.34
2022-12-29T13:33:07.645Z,7.35
2022-12-29T13:36:18.201Z,7.31
2022-12-29T13:39:30.090Z,7.23
2022-12-29T13:42:33.002Z,7.25
2022-12-29T13:45:36.527Z,7.26
2022-12-29T13:48:50.476Z,7.27
2022-12-29T13:51:59.906Z,7.27
2022-12-29T13:55:20.706Z,7.26
2022-12-29T13:58:38.592Z,7.15
2022-12-29T14:02:31.143Z,7.20
2022-12-29T14:05:33.359Z,7.28
2022-12-29T14:08:36.534Z,7.27
2022-12-29T14:11:42.075Z,7.29
2022-12-29T14:14:43.752Z,7.26
2022-12-29T14:18:00.896Z,7.23
2022-12-29T14:21:23.546Z,7.31
2022-12-29T14:24:37.324Z,7.29
2022-12-29T14:27:52.018Z,7.25
2022-12-29T14:30:59.629Z,7.25
2022-12-29T14:34:07.460Z,7.27
2022-12-29T14:37:27.911Z,7.30
2022-12-29T14:40:29.657Z,7.34
2022-12-29T14:43:31.360Z,7.38
2022-12-29T14:46:55.028Z,7.38
2022-12-29T14:50:03.605Z,7.36
2022-12-29T14:53:07.289Z,7.37
2022-12-29T14:56:12.552Z,7.40
2022-12-29T14:59:14.744Z,7.37
2022-12-29T15:02:21.521Z,7.38
2022-12-29T15:05:55.496Z,7.34
2022-12-29T15:09:06.076Z,7.32
2022-12-29T15:12:42.714Z,7.22
2022-12-29T15:15:44.467Z,7.23
2022-12-29T15:18:46.126Z,7.21
2022-12-29T15:21:48.469Z,7.18
2022-12-29T15:24:55.136Z,7.13
2022-12-29T15:28:06.103Z,7.12
2022-12-29T15:31:14.329Z,7.11
2022-12-29T15:34:16.272Z,7.08
2022-12-29T15:37:27.447Z,7.12
2022-12-29T15:40:33.697Z,6.97
2022-12-29T15:43:50.744Z,6.99
2022-12-29T15:46:53.047Z,7.01
2022-12-29T15:50:07.075Z,7.00
2022-12-29T15:53:17.568Z,6.99
2022-12-29T15:56:19.507Z,7.10
2022-12-29T15:59:32.967Z,7.15
2022-12-29T16:02:35.631Z,7.14
2022-12-29T16:05:41.099Z,7.11
2022-12-29T16:08:42.840Z,7.22
2022-12-29T16:11:48.844Z,7.21
2022-12-29T16:14:58.516Z,7.26
2022-12-29T16:18:00.579Z,7.28
2022-12-29T16:21:06.001Z,7.27
2022-12-29T16:24:14.504Z,7.25
2022-12-29T16:27:27.811Z,7.29
2022-12-29T16:30:35.556Z,7.31
2022-12-29T16:33:55.134Z,7.32
2022-12-29T16:37:23.712Z,7.37
2022-12-29T16:40:33.567Z,7.37
2022-12-29T16:43:42.734Z,7.43
2022-12-29T16:47:08.228Z,7.33
2022-12-29T16:50:28.315Z,7.37
2022-12-29T16:53:39.721Z,7.32
2022-12-29T16:56:45.674Z,7.32
2022-12-29T16:59:47.475Z,7.28
2022-12-29T17:02:57.174Z,7.32
2022-12-29T17:05:58.981Z,7.41
2022-12-29T17:09:00.792Z,7.40
2022-12-29T17:12:10.901Z,7.51
2022-12-29T17:15:21.495Z,7.57
2022-12-29T17:18:23.447Z,7.54
2022-12-29T17:21:25.227Z,7.62
2022-12-29T17:24:27.935Z,7.55
2022-12-29T17:27:34.745Z,7.57
2022-12-29T17:30:36.690Z,7.64
2022-12-29T17:33:42.349Z,7.55
2022-12-29T17:36:44.120Z,7.57
2022-12-29T17:39:45.813Z,7.57
2022-12-29T17:42:53.793Z,7.54
2022-12-29T17:45:57.497Z,7.52
2022-12-29T17:48:59.638Z,7.51
2022-12-29T17:52:01.377Z,7.51
2022-12-29T17:55:03.047Z,7.39
2022-12-29T17:58:19.394Z,7.35
2022-12-29T18:01:22.046Z,7.27
2022-12-29T18:04:23.763Z,7.15
2022-12-29T18:07:35.706Z,7.15
2022-12-29T18:10:38.875Z,7.13
2022-12-29T18:13:46.323Z,7.17
2022-12-29T18:16:48.963Z,7.12
2022-12-29T18:19:54.592Z,7.07
2022-12-29T18:22:56.836Z,7.10
2022-12-29T18:26:05.024Z,7.11
2022-12-29T18:29:06.773Z,7.05
2022-12-29T18:32:15.741Z,6.99
2022-12-29T18:35:25.927Z,6.89
2022-12-29T18:38:28.513Z,6.83
2022-12-29T18:41:30.361Z,6.86
2022-12-29T18:44:32.156Z,6.89
2022-12-29T18:47:33.881Z,6.89
2022-12-29T18:50:35.558Z,6.91
2022-12-29T18:53:37.984Z,6.88
2022-12-29T18:56:39.829Z,6.96
2022-12-29T18:59:41.516Z,7.01
2022-12-29T19:02:43.934Z,6.96
2022-12-29T19:05:47.129Z,6.89
2022-12-29T19:08:49.349Z,6.81
2022-12-29T19:11:51.187Z,6.76
2022-12-29T19:14:52.839Z,6.73
2022-12-29T19:18:32.938Z,6.70
2022-12-29T19:21:19.965Z,6.70
2022-12-29T19:24:21.817Z,6.62
2022-12-29T19:27:23.484Z,6.56
2022-12-29T19:30:25.141Z,6.44
2022-12-29T19:33:28.088Z,6.42
2022-12-29T19:36:30.076Z,6.44
2022-12-29T19:39:32.153Z,6.42
2022-12-29T19:42:34.401Z,6.38
2022-12-29T19:45:38.769Z,6.41
2022-12-29T19:48:40.913Z,6.35
2022-12-29T19:51:42.613Z,6.37
2022-12-29T19:54:44.566Z,6.42
2022-12-29T19:57:46.336Z,6.47
2022-12-29T20:00:49.312Z,6.54
2022-12-29T20:03:51.836Z,6.50
2022-12-29T20:06:53.567Z,6.47
2022-12-29T20:09:55.296Z,6.41
2022-12-29T20:12:57.023Z,6.42
2022-12-29T20:16:03.843Z,6.40
2022-12-29T20:19:05.814Z,6.33
2022-12-29T20:22:08.862Z,6.31
2022-12-29T20:25:43.574Z,6.19
2022-12-29T20:28:32.825Z,6.19
2022-12-29T20:31:38.676Z,6.19
2022-12-29T20:34:41.687Z,6.11
2022-12-29T20:37:43.355Z,6.02
2022-12-29T20:40:46.956Z,5.95
2022-12-29T20:43:49.769Z,5.91
2022-12-29T20:46:51.732Z,5.95
2022-12-29T20:49:53.720Z,5.96
2022-12-29T20:52:55.643Z,6.05
2022-12-29T20:56:04.208Z,6.13
2022-12-29T20:59:27.060Z,6.09
2022-12-29T21:02:28.268Z,6.05
2022-12-29T21:05:30.692Z,6.16
2022-12-29T21:08:32.415Z,6.14
2022-12-29T21:11:34.410Z,6.12
2022-12-29T21:14:38.579Z,6.07
2022-12-29T21:17:44.816Z,6.15
2022-12-29T21:20:57.199Z,6.24
2022-12-29T21:24:05.564Z,6.33
2022-12-29T21:27:07.636Z,6.35
2022-12-29T21:30:10.123Z,6.45
2022-12-29T21:33:11.808Z,6.42
2022-12-29T21:36:13.493Z,6.47
2022-12-29T21:39:16.443Z,6.42
2022-12-29T21:42:18.398Z,6.39
2022-12-29T21:45:25.981Z,6.39
2022-12-29T21:48:30.049Z,6.33
2022-12-29T21:51:50.034Z,6.23
2022-12-29T21:55:00.877Z,6.24
2022-12-29T21:58:20.884Z,6.20
2022-12-29T22:01:41.920Z,6.18
2022-12-29T22:05:02.006Z,6.24
2022-12-29T22:08:22.235Z,6.19
2022-12-29T22:11:42.480Z,6.15
2022-12-29T22:14:44.108Z,6.12
2022-12-29T22:17:49.071Z,6.14
2022-12-29T22:20:51.571Z,6.15
2022-12-29T22:23:53.274Z,6.21
2022-12-29T22:26:54.990Z,6.17
2022-12-29T22:29:56.827Z,6.11
2022-12-29T22:32:58.982Z,6.07
2022-12-29T22:36:00.644Z,6.10
2022-12-29T22:39:02.303Z,6.04
2022-12-29T22:42:04.062Z,5.96
2022-12-29T22:45:07.001Z,5.89
2022-12-29T22:48:08.937Z,5.87
2022-12-29T22:51:10.694Z,5.79
2022-12-29T22:54:12.369Z,5.83
2022-12-29T22:57:14.071Z,5.82
2022-12-29T23:00:16.350Z,5.78
2022-12-29T23:03:18.628Z,5.73
2022-12-29T23:06:20.479Z,5.72
2022-12-29T23:09:23.132Z,5.72
2022-12-29T23:12:25.648Z,5.67
2022-12-29T23:15:27.370Z,5.69
2022-12-29T23:18:29.537Z,5.68
2022-12-29T23:21:31.762Z,5.57
2022-12-29T23:24:33.465Z,5.59
2022-12-29T23:27:35.193Z,5.59
2022-12-29T23:30:36.963Z,5.57
2022-12-29T23:33:38.683Z,5.58
2022-12-29T23:36:40.886Z,5.62
2022-12-29T23:39:42.672Z,5.73
2022-12-29T23:42:44.424Z,5.83
2022-12-29T23:45:50.603Z,5.89
2022-12-29T23:48:52.890Z,5.97
2022-12-29T23:51:54.711Z,6.09
2022-12-29T23:54:56.373Z,6.12
2022-12-29T23:57:58.046Z,6.17
